Time;durP1;ratioP1;P1;durP2;ratioP2;P2;SDS_P1;SDS_P2;PMS_P1;PMS_P2;Temp;Humidity;BMP_temperature;BMP_pressure;BME280_temperature;BME280_humidity;BME280_pressure;Samples;Min_cycle;Max_cycle;Signal;HPM_P1;HPM_P2
2022/06/22 00:00:25;;;;;;;14.00;11.07;;;;;;;19.97;75.46;93493.91;5030537;28;20060;-61
2022/06/22 00:02:55;;;;;;;15.07;11.70;;;;;;;19.89;76.45;93485.22;5031046;28;20488;-62
2022/06/22 00:05:37;;;;;;;17.65;11.80;;;;;;;19.88;76.84;93483.66;5030286;28;20425;-61
2022/06/22 00:08:07;;;;;;;20.02;12.63;;;;;;;19.75;77.62;93487.56;5030294;28;20095;-62
2022/06/22 00:10:50;;;;;;;30.13;21.00;;;;;;;19.77;77.92;93486.31;5019301;28;20045;-59
2022/06/22 00:13:21;;;;;;;16.52;12.20;;;;;;;19.62;78.59;93483.53;5011395;28;20037;-59
2022/06/22 00:16:03;;;;;;;15.87;11.90;;;;;;;19.44;79.14;93481.78;5028588;28;20076;-60
2022/06/22 00:18:39;;;;;;;17.55;12.13;;;;;;;19.43;79.77;93474.69;5025890;28;20523;-60
2022/06/22 00:21:36;;;;;;;16.67;12.32;;;;;;;19.45;79.81;93467.38;5028898;28;20044;-60
2022/06/22 00:24:22;;;;;;;15.40;11.65;;;;;;;19.49;79.51;93445.69;5049313;28;20075;-59
2022/06/22 00:26:59;;;;;;;15.60;11.23;;;;;;;19.45;79.67;93442.34;5038624;28;20380;-59
2022/06/22 00:29:34;;;;;;;14.77;11.97;;;;;;;19.55;79.12;93437.41;5047826;28;20060;-59
2022/06/22 00:32:25;;;;;;;17.83;12.30;;;;;;;19.61;78.56;93429.91;5049263;28;20049;-60
2022/06/22 00:34:53;;;;;;;25.42;18.65;;;;;;;19.68;77.98;93448.97;5028761;28;20440;-59
2022/06/22 00:37:27;;;;;;;20.85;15.57;;;;;;;19.69;78.03;93452.53;5029543;28;20426;-60
2022/06/22 00:39:59;;;;;;;15.80;12.25;;;;;;;19.69;78.11;93450.50;5030276;28;20042;-60
2022/06/22 00:42:37;;;;;;;15.83;11.67;;;;;;;19.60;78.28;93450.66;5029989;28;20041;-59
2022/06/22 00:45:09;;;;;;;15.95;11.77;;;;;;;19.48;79.12;93455.28;5019524;28;20049;-59
2022/06/22 00:47:56;;;;;;;16.48;11.93;;;;;;;19.33;80.12;93454.56;5020272;28;21453;-59
2022/06/22 00:50:36;;;;;;;16.60;12.68;;;;;;;19.14;81.14;93454.03;5027800;28;20038;-59
2022/06/22 00:53:11;;;;;;;15.30;12.20;;;;;;;19.21;80.87;93456.41;5040535;28;20049;-60
2022/06/22 00:55:41;;;;;;;16.13;12.33;;;;;;;19.29;80.28;93468.66;5045557;28;20898;-60
2022/06/22 00:58:07;;;;;;;18.17;12.43;;;;;;;19.19;80.96;93460.94;5039444;28;20041;-60
2022/06/22 01:00:41;;;;;;;17.45;13.27;;;;;;;19.06;81.37;93456.44;5048112;28;20045;-59
2022/06/22 01:03:22;;;;;;;16.40;13.07;;;;;;;18.99;82.20;93450.50;5049731;28;20067;-62
2022/06/22 01:06:06;;;;;;;19.05;12.27;;;;;;;18.86;82.73;93453.59;5028940;28;22116;-60
2022/06/22 01:08:43;;;;;;;16.20;12.40;;;;;;;18.95;82.33;93459.81;5029523;28;20042;-59
2022/06/22 01:14:27;;;;;;;18.58;14.20;;;;;;;19.00;82.12;93452.06;5049082;28;20045;-59
2022/06/22 01:16:57;;;;;;;15.95;12.80;;;;;;;18.88;82.85;93454.66;5037516;28;20046;-59
2022/06/22 01:19:35;;;;;;;17.60;12.45;;;;;;;18.77;83.35;93437.75;5027982;28;20045;-59
2022/06/22 01:22:28;;;;;;;16.23;13.20;;;;;;;18.50;84.85;93434.00;5032228;28;20045;-59
2022/06/22 01:25:51;;;;;;;18.05;12.70;;;;;;;18.65;84.13;93436.81;5025719;28;20981;-59
2022/06/22 01:28:18;;;;;;;17.02;12.55;;;;;;;18.79;83.52;93423.38;4960647;28;20496;-59
2022/06/22 01:30:51;;;;;;;18.02;13.13;;;;;;;18.76;83.67;93430.66;5032798;28;20481;-59
2022/06/22 01:33:24;;;;;;;17.17;13.63;;;;;;;18.75;84.16;93434.69;5045592;28;20045;-59
2022/06/22 01:35:58;;;;;;;18.80;12.70;;;;;;;18.85;83.37;93450.03;5025662;28;20058;-60
2022/06/22 01:38:28;;;;;;;16.45;12.73;;;;;;;18.93;82.28;93440.06;5031695;28;21360;-59
2022/06/22 01:41:20;;;;;;;17.95;12.75;;;;;;;18.82;83.20;93444.69;5032519;28;20051;-59
2022/06/22 01:44:21;;;;;;;18.02;13.30;;;;;;;18.67;83.77;93444.66;5032686;28;20737;-59
2022/06/22 01:47:15;;;;;;;19.17;13.45;;;;;;;18.40;85.00;93440.91;5004276;28;20383;-60
2022/06/22 01:50:20;;;;;;;17.23;13.03;;;;;;;18.21;86.31;93436.75;5052352;28;20643;-59
2022/06/22 01:53:13;;;;;;;17.00;13.60;;;;;;;18.31;85.93;93446.53;5026666;28;20801;-59
2022/06/22 01:55:40;;;;;;;18.10;13.32;;;;;;;18.49;84.46;93440.84;5051905;28;21826;-59
2022/06/22 01:58:27;;;;;;;17.17;13.30;;;;;;;18.42;84.96;93437.66;5052639;28;20049;-59
2022/06/22 02:01:16;;;;;;;18.70;14.45;;;;;;;18.33;85.55;93441.28;5052067;28;20706;-59
2022/06/22 02:03:51;;;;;;;17.13;13.07;;;;;;;18.44;84.86;93446.28;5051932;28;21487;-59
2022/06/22 02:09:19;;;;;;;17.85;12.63;;;;;;;18.54;84.00;93444.94;5052447;28;20037;-61
2022/06/22 02:12:18;;;;;;;17.75;13.85;;;;;;;18.56;83.93;93434.13;5048818;28;20048;-61
2022/06/22 02:14:44;;;;;;;17.88;13.30;;;;;;;18.55;84.07;93449.25;5045689;28;20640;-61
2022/06/22 02:17:16;;;;;;;18.50;13.57;;;;;;;18.62;83.38;93445.34;5023973;28;20072;-61
2022/06/22 02:19:43;;;;;;;17.73;13.52;;;;;;;18.43;84.47;93444.75;5026001;28;20054;-61
2022/06/22 02:22:13;;;;;;;17.25;13.38;;;;;;;18.36;85.11;93437.56;5026439;28;20158;-58
2022/06/22 02:24:45;;;;;;;17.83;12.95;;;;;;;18.48;84.44;93436.50;5028774;28;20498;-59
2022/06/22 02:27:23;;;;;;;17.25;11.80;;;;;;;18.63;82.45;93444.06;5020541;28;20050;-59
2022/06/22 02:29:53;;;;;;;16.60;11.03;;;;;;;18.69;81.12;93448.50;5027832;28;20056;-59
2022/06/22 02:32:30;;;;;;;14.90;10.75;;;;;;;18.65;80.37;93452.69;5031578;28;20084;-59
2022/06/22 02:34:58;;;;;;;22.30;14.10;;;;;;;18.40;84.24;93445.72;5027523;28;20164;-59
2022/06/22 02:37:29;;;;;;;19.92;14.85;;;;;;;17.99;87.13;93443.44;5049407;28;20057;-59
2022/06/22 02:39:59;;;;;;;18.33;14.38;;;;;;;18.08;86.83;93437.81;5052253;28;20432;-59
2022/06/22 02:45:14;;;;;;;18.77;13.32;;;;;;;18.35;85.24;93444.34;5050629;28;20422;-59
2022/06/22 02:47:48;;;;;;;20.10;13.70;;;;;;;18.43;84.96;93442.75;5052256;28;20045;-59
2022/06/22 02:50:33;;;;;;;18.85;13.68;;;;;;;18.48;84.31;93450.41;5049328;28;20037;-59
2022/06/22 02:53:12;;;;;;;18.02;13.05;;;;;;;18.42;84.12;93452.31;5042944;28;20383;-59
2022/06/22 02:55:39;;;;;;;15.70;11.60;;;;;;;18.49;83.27;93451.94;5038864;28;20804;-59
2022/06/22 02:58:27;;;;;;;15.23;11.43;;;;;;;18.53;82.63;93446.19;5031854;28;20100;-59
2022/06/22 03:00:55;;;;;;;16.85;11.30;;;;;;;18.58;82.19;93434.41;5030949;28;20770;-59
2022/06/22 03:03:22;;;;;;;14.88;10.90;;;;;;;18.65;81.82;93436.81;5031463;28;20041;-59
2022/06/22 03:05:54;;;;;;;18.80;11.10;;;;;;;18.67;81.74;93433.53;5031779;28;20045;-59
2022/06/22 03:08:22;;;;;;;15.83;10.70;;;;;;;18.68;81.25;93438.63;5031285;28;20053;-59
2022/06/22 03:11:01;;;;;;;15.95;10.95;;;;;;;18.69;81.04;93436.59;5031721;28;20478;-62
2022/06/22 03:13:40;;;;;;;15.73;11.57;;;;;;;18.59;81.76;93432.38;5031222;28;20044;-61
2022/06/22 03:16:22;;;;;;;18.42;12.25;;;;;;;18.66;82.13;93437.56;5017904;28;20054;-61
2022/06/22 03:18:50;;;;;;;19.60;14.07;;;;;;;18.68;82.33;93441.41;5025855;28;20127;-62
2022/06/22 03:21:18;;;;;;;17.50;11.90;;;;;;;18.52;82.66;93436.31;5025434;28;20578;-62
2022/06/22 03:23:57;;;;;;;20.90;13.32;;;;;;;18.22;84.82;93443.88;5028760;28;20053;-62
2022/06/22 03:26:28;;;;;;;16.17;12.43;;;;;;;18.44;83.55;93437.94;5020971;28;20084;-62
2022/06/22 03:29:20;;;;;;;15.15;10.55;;;;;;;18.45;81.63;93436.69;5021329;28;20202;-62
2022/06/22 03:32:00;;;;;;;14.57;9.57;;;;;;;18.50;81.22;93453.47;5030646;28;20053;-62
2022/06/22 03:34:32;;;;;;;13.77;9.53;;;;;;;18.65;80.47;93453.50;5017660;28;20049;-62
2022/06/22 03:37:11;;;;;;;14.90;9.60;;;;;;;18.71;80.09;93453.56;5008377;28;20042;-62
2022/06/22 03:39:43;;;;;;;14.32;10.20;;;;;;;18.77;79.70;93460.78;5016174;28;21518;-62
2022/06/22 03:42:17;;;;;;;16.20;9.65;;;;;;;18.77;79.44;93466.31;5022983;28;20053;-62
2022/06/22 03:44:54;;;;;;;14.00;9.73;;;;;;;18.82;79.66;93466.94;5022307;28;20063;-60
2022/06/22 03:47:28;;;;;;;15.57;10.83;;;;;;;18.80;79.93;93478.53;5011607;28;20503;-60
2022/06/22 03:50:17;;;;;;;13.95;10.73;;;;;;;18.95;80.11;93486.84;5030207;28;20048;-58
2022/06/22 03:52:47;;;;;;;16.10;11.40;;;;;;;18.98;80.29;93488.69;5018746;28;22088;-58
2022/06/22 03:55:20;;;;;;;17.33;12.45;;;;;;;18.88;82.04;93479.66;5025798;28;20045;-58
2022/06/22 03:57:52;;;;;;;19.02;12.45;;;;;;;18.69;83.70;93481.06;5027636;28;20115;-60
2022/06/22 04:00:19;;;;;;;18.47;11.93;;;;;;;18.67;84.37;93473.22;5028071;28;20409;-60
2022/06/22 04:02:48;;;;;;;15.90;10.93;;;;;;;18.60;84.30;93478.41;5030218;28;20441;-60
2022/06/22 04:05:21;;;;;;;14.85;10.45;;;;;;;18.57;84.08;93477.31;5025445;28;20048;-60
2022/06/22 04:07:48;;;;;;;15.68;10.45;;;;;;;18.58;84.65;93498.31;5030878;28;20055;-60
2022/06/22 04:10:40;;;;;;;15.77;10.15;;;;;;;18.30;86.22;93512.47;5029973;28;20049;-60
2022/06/22 04:13:34;;;;;;;14.43;9.73;;;;;;;18.09;86.79;93510.75;5030531;28;20043;-60
2022/06/22 04:16:08;;;;;;;18.95;12.70;;;;;;;17.77;90.08;93497.25;5021306;28;20793;-60
2022/06/22 04:18:41;;;;;;;25.02;16.50;;;;;;;17.48;94.19;93488.78;5030242;28;21023;-60
2022/06/22 04:21:12;;;;;;;23.75;15.27;;;;;;;17.94;93.10;93500.38;5030747;28;20041;-60
2022/06/22 04:23:50;;;;;;;22.38;14.88;;;;;;;18.12;92.12;93496.69;5048069;28;20049;-60
2022/06/22 04:26:25;;;;;;;18.73;12.43;;;;;;;18.05;91.42;93483.19;5033599;28;20051;-60
2022/06/22 04:29:01;;;;;;;17.48;11.73;;;;;;;18.14;90.60;93502.56;5048936;28;20057;-60
2022/06/22 04:31:33;;;;;;;17.58;11.98;;;;;;;18.23;90.69;93498.16;5049976;28;20047;-60
2022/06/22 04:34:37;;;;;;;22.77;12.70;;;;;;;18.34;90.07;93490.06;5047066;28;20099;-60
2022/06/22 04:37:14;;;;;;;19.70;12.32;;;;;;;18.41;89.59;93500.81;5017380;28;20071;-60
2022/06/22 04:39:47;;;;;;;15.43;11.20;;;;;;;18.36;88.81;93507.00;5049032;28;20229;-60
2022/06/22 04:42:14;;;;;;;16.10;9.52;;;;;;;18.33;88.41;93505.97;5049320;28;20040;-60
2022/06/22 04:44:49;;;;;;;13.93;9.45;;;;;;;18.26;89.20;93511.88;5049578;28;20045;-60
2022/06/22 04:47:22;;;;;;;17.40;11.30;;;;;;;18.22;90.67;93516.84;5049308;28;20117;-60
2022/06/22 04:49:52;;;;;;;21.25;13.18;;;;;;;18.31;90.95;93527.09;5035495;28;20041;-58
2022/06/22 04:52:29;;;;;;;18.47;13.83;;;;;;;18.23;90.78;93535.06;5028798;28;20049;-58
2022/06/22 04:55:01;;;;;;;17.05;13.15;;;;;;;18.19;92.26;93534.47;5026685;28;20042;-58
2022/06/22 04:57:35;;;;;;;18.80;13.38;;;;;;;18.05;93.11;93530.41;5025806;28;20095;-60
2022/06/22 05:00:13;;;;;;;21.90;13.70;;;;;;;18.12;92.68;93532.03;5025266;28;20045;-58
2022/06/22 05:02:42;;;;;;;16.77;12.20;;;;;;;18.30;92.25;93531.13;5048196;28;20757;-58
2022/06/22 05:05:19;;;;;;;21.47;12.57;;;;;;;18.34;91.52;93532.47;5048806;28;20049;-58
2022/06/22 05:07:57;;;;;;;18.15;11.60;;;;;;;18.35;91.02;93536.03;5036593;28;20509;-60
2022/06/22 05:10:24;;;;;;;14.90;10.20;;;;;;;18.40;90.37;93543.72;5020621;28;20048;-60
2022/06/22 05:13:01;;;;;;;15.93;9.70;;;;;;;18.44;89.95;93543.53;5049654;28;20053;-60
2022/06/22 05:15:35;;;;;;;15.77;10.45;;;;;;;18.50;89.27;93536.81;5049224;28;20044;-58
2022/06/22 05:18:09;;;;;;;16.13;10.17;;;;;;;18.62;89.65;93535.03;5049369;28;20521;-58
2022/06/22 05:20:45;;;;;;;17.02;9.90;;;;;;;18.68;88.75;93529.56;5028833;28;20801;-58
2022/06/22 05:23:13;;;;;;;15.55;9.07;;;;;;;18.55;86.28;93529.84;5029108;28;20059;-57
2022/06/22 05:25:44;;;;;;;13.55;8.63;;;;;;;18.62;84.90;93537.06;5015508;28;20045;-60
2022/06/22 05:28:16;;;;;;;13.88;8.65;;;;;;;18.69;84.37;93534.66;5028999;28;20170;-59
2022/06/22 05:30:52;;;;;;;17.73;8.50;;;;;;;18.81;83.74;93529.31;5029161;28;20044;-58
2022/06/22 05:33:22;;;;;;;13.50;8.55;;;;;;;18.96;82.41;93533.63;5019995;28;20410;-58
2022/06/22 05:35:59;;;;;;;16.83;8.65;;;;;;;19.08;81.98;93536.63;5020949;28;20132;-59
2022/06/22 05:38:27;;;;;;;14.32;8.77;;;;;;;19.12;81.50;93524.03;5028953;28;20350;-58
2022/06/22 05:40:55;;;;;;;15.35;9.48;;;;;;;19.22;82.14;93516.38;5028233;28;20486;-59
2022/06/22 05:43:23;;;;;;;17.10;11.13;;;;;;;18.77;85.33;93518.34;5005646;28;20052;-58
2022/06/22 05:45:57;;;;;;;17.08;10.50;;;;;;;18.81;86.24;93523.75;5027964;28;20044;-58
2022/06/22 05:48:26;;;;;;;17.52;10.90;;;;;;;18.85;86.25;93525.09;5028490;28;20053;-58
2022/06/22 05:51:01;;;;;;;17.73;10.52;;;;;;;19.05;86.39;93527.19;5029083;28;20493;-58
2022/06/22 05:53:38;;;;;;;17.50;11.02;;;;;;;19.12;86.11;93521.28;5028702;28;20093;-58
2022/06/22 05:56:11;;;;;;;14.77;10.47;;;;;;;19.07;85.30;93529.50;5029426;28;20045;-58
2022/06/22 05:58:43;;;;;;;16.63;10.30;;;;;;;19.24;85.03;93536.13;5038780;28;20733;-58
2022/06/22 06:01:33;;;;;;;15.60;10.30;;;;;;;19.54;84.47;93527.72;5045297;28;20052;-58
2022/06/22 06:04:35;;;;;;;19.48;9.90;;;;;;;19.66;83.04;93532.22;5047716;28;20059;-58
2022/06/22 06:07:28;;;;;;;19.08;9.77;;;;;;;19.40;84.57;93531.28;5004867;28;20922;-58
2022/06/22 06:09:55;;;;;;;15.63;9.40;;;;;;;19.31;84.05;93532.94;5028371;28;20056;-58
2022/06/22 06:12:35;;;;;;;15.32;9.50;;;;;;;18.98;84.96;93521.28;5032552;28;20033;-61
2022/06/22 06:15:04;;;;;;;16.65;10.20;;;;;;;19.07;86.99;93521.94;5018056;28;20046;-58
2022/06/22 06:17:36;;;;;;;15.23;10.57;;;;;;;18.87;86.25;93517.03;4991439;28;20054;-58
2022/06/22 06:20:07;;;;;;;18.15;11.15;;;;;;;18.91;88.82;93516.84;5023176;28;20467;-58
2022/06/22 06:22:36;;;;;;;15.27;10.40;;;;;;;19.12;87.27;93512.91;5030642;28;20045;-58
2022/06/22 06:28:06;;;;;;;19.75;11.32;;;;;;;18.89;86.80;93502.66;5051515;28;20409;-61
2022/06/22 06:30:50;;;;;;;15.82;10.15;;;;;;;18.94;86.98;93508.31;5052000;28;20063;-58
2022/06/22 06:33:34;;;;;;;15.05;10.07;;;;;;;18.87;86.90;93491.25;5037576;28;20049;-58
2022/06/22 06:36:28;;;;;;;15.97;9.70;;;;;;;18.68;88.89;93482.31;5052163;28;20204;-58
2022/06/22 06:39:05;;;;;;;16.13;8.30;;;;;;;18.84;85.59;93484.66;5031331;28;20402;-58
2022/06/22 06:42:03;;;;;;;16.27;8.00;;;;;;;19.19;82.46;93480.41;5031788;28;20049;-58
2022/06/22 06:44:38;;;;;;;16.85;8.50;;;;;;;19.42;82.38;93475.91;5031594;28;20053;-59
2022/06/22 06:47:15;;;;;;;13.18;7.95;;;;;;;20.06;81.78;93474.25;5032247;28;20052;-58
2022/06/22 06:50:02;;;;;;;14.60;8.27;;;;;;;20.46;80.15;93481.81;5019736;28;20752;-58
2022/06/22 06:52:41;;;;;;;13.57;8.25;;;;;;;20.77;79.28;93490.78;5011736;28;20158;-59
2022/06/22 06:55:14;;;;;;;16.60;8.20;;;;;;;21.17;76.73;93492.66;5021968;28;20605;-58
2022/06/22 06:58:11;;;;;;;10.25;6.25;;;;;;;21.10;76.06;93501.47;5030617;28;21631;-59
2022/06/22 07:00:39;;;;;;;12.98;6.60;;;;;;;21.27;75.37;93498.78;5050928;28;21782;-59
2022/06/22 07:03:18;;;;;;;12.47;6.40;;;;;;;21.58;73.83;93500.84;5046825;28;20431;-58
2022/06/22 07:05:46;;;;;;;12.00;5.75;;;;;;;20.79;76.52;93502.22;5043445;28;20606;-59
2022/06/22 07:08:40;;;;;;;14.23;6.20;;;;;;;21.19;75.53;93497.72;5050850;28;20048;-58
2022/06/22 07:11:33;;;;;;;10.68;5.40;;;;;;;22.27;71.58;93491.56;5051499;28;20057;-59
2022/06/22 07:14:13;;;;;;;15.02;6.50;;;;;;;23.32;66.73;93488.72;5029604;28;20104;-59
2022/06/22 07:16:41;;;;;;;13.60;6.10;;;;;;;24.28;63.18;93489.31;5020766;28;20055;-59
2022/06/22 07:19:17;;;;;;;14.10;6.50;;;;;;;24.39;63.10;93494.13;5021870;28;20387;-59
2022/06/22 07:21:51;;;;;;;13.70;7.20;;;;;;;23.54;62.31;93496.34;5029418;28;20193;-59
2022/06/22 07:24:29;;;;;;;13.00;7.30;;;;;;;23.40;62.96;93495.38;5031777;28;20379;-59
2022/06/22 07:27:05;;;;;;;12.43;7.35;;;;;;;23.09;63.19;93494.31;5047081;28;20048;-59
2022/06/22 07:29:53;;;;;;;14.10;6.67;;;;;;;23.19;64.04;93496.88;5050888;28;20345;-59
2022/06/22 07:32:25;;;;;;;13.25;6.65;;;;;;;22.73;65.33;93496.78;5046567;28;20052;-59
2022/06/22 07:35:01;;;;;;;12.10;6.68;;;;;;;22.69;65.89;93495.50;5042363;28;20106;-59
2022/06/22 07:37:32;;;;;;;14.93;6.53;;;;;;;22.53;65.51;93489.34;5050372;28;20049;-59
2022/06/22 07:40:11;;;;;;;13.10;5.72;;;;;;;22.41;64.98;93487.03;5047133;28;20068;-59
2022/06/22 07:42:39;;;;;;;8.77;4.83;;;;;;;22.12;63.53;93491.75;5020755;28;20744;-59
2022/06/22 07:45:12;;;;;;;8.55;4.60;;;;;;;22.39;62.37;93497.97;5031320;28;20493;-59
2022/06/22 07:47:46;;;;;;;12.85;5.57;;;;;;;22.50;63.88;93500.81;5049873;28;21595;-59
2022/06/22 07:50:24;;;;;;;13.15;5.32;;;;;;;21.99;68.80;93499.81;5039335;28;20055;-59
2022/06/22 07:53:18;;;;;;;14.18;5.70;;;;;;;21.90;69.23;93498.75;5049280;28;20041;-59
2022/06/22 07:55:51;;;;;;;10.90;6.20;;;;;;;21.60;71.02;93497.56;5030324;28;21047;-59
2022/06/22 07:58:21;;;;;;;10.68;6.07;;;;;;;21.90;71.20;93493.16;5026041;28;20042;-59
2022/06/22 08:00:54;;;;;;;15.43;6.50;;;;;;;22.00;69.43;93499.31;5019380;28;20056;-59
2022/06/22 08:03:31;;;;;;;11.73;5.55;;;;;;;21.58;71.86;93500.84;5028000;28;20433;-59
2022/06/22 08:06:04;;;;;;;12.13;6.25;;;;;;;20.95;74.29;93501.59;5030848;28;20482;-59
2022/06/22 08:08:40;;;;;;;13.13;6.43;;;;;;;21.07;73.15;93511.59;5029962;28;20071;-59
2022/06/22 08:11:14;;;;;;;11.93;5.53;;;;;;;21.00;73.97;93520.41;5030678;28;20143;-59
2022/06/22 08:13:53;;;;;;;15.85;6.20;;;;;;;21.00;74.81;93525.97;5049445;28;20784;-59
2022/06/22 08:16:28;;;;;;;9.40;5.50;;;;;;;21.20;73.44;93527.16;5049845;28;20043;-59
2022/06/22 08:18:56;;;;;;;15.50;6.07;;;;;;;20.43;76.95;93527.41;5049968;28;20110;-59
2022/06/22 08:21:23;;;;;;;14.40;5.67;;;;;;;20.33;77.73;93531.59;5049420;28;20045;-59
2022/06/22 08:23:51;;;;;;;12.98;5.80;;;;;;;20.42;76.51;93534.22;5045035;28;20559;-59
2022/06/22 08:26:29;;;;;;;11.20;5.82;;;;;;;20.37;76.61;93539.75;5041335;28;20037;-59
2022/06/22 08:28:56;;;;;;;11.60;6.13;;;;;;;20.26;76.70;93537.56;5048441;28;20076;-59
2022/06/22 08:31:30;;;;;;;15.63;6.10;;;;;;;20.30;76.88;93530.56;5049240;28;20041;-59
2022/06/22 08:34:04;;;;;;;11.50;6.13;;;;;;;20.34;77.19;93538.69;5038608;28;20048;-59
2022/06/22 08:36:38;;;;;;;12.75;6.18;;;;;;;20.37;76.75;93545.31;5049606;28;20053;-59
2022/06/22 08:39:17;;;;;;;13.07;5.85;;;;;;;20.43;78.88;93541.34;5049955;28;20040;-59
2022/06/22 08:42:01;;;;;;;11.30;5.50;;;;;;;20.59;79.42;93542.81;5029239;28;20072;-59
2022/06/22 08:45:02;;;;;;;15.15;5.82;;;;;;;20.63;80.65;93548.94;5029212;28;20052;-59
2022/06/22 08:47:47;;;;;;;11.70;5.13;;;;;;;20.53;80.85;93555.91;5007661;28;20046;-59
2022/06/22 08:50:29;;;;;;;13.45;5.18;;;;;;;20.52;80.33;93555.13;5026235;28;20051;-59
2022/06/22 08:53:28;;;;;;;16.90;5.28;;;;;;;20.59;80.44;93570.69;5029942;28;20045;-59
2022/06/22 08:55:57;;;;;;;13.45;4.90;;;;;;;20.50;80.17;93581.94;5021732;28;20053;-59
2022/06/22 08:58:30;;;;;;;15.55;5.95;;;;;;;20.14;82.67;93598.75;5019103;28;20042;-59
2022/06/22 09:01:21;;;;;;;17.03;5.83;;;;;;;19.67;81.68;93606.13;5020646;28;20052;-59
2022/06/22 09:04:21;;;;;;;15.48;5.47;;;;;;;19.46;81.63;93621.22;5023989;28;20840;-59
2022/06/22 09:07:14;;;;;;;17.25;4.57;;;;;;;19.14;79.83;93641.16;5022913;28;20045;-59
2022/06/22 09:10:18;;;;;;;17.13;4.25;;;;;;;18.58;80.84;93625.41;5048231;28;20170;-58
2022/06/22 09:13:06;;;;;;;17.73;3.78;;;;;;;18.74;79.97;93630.50;5028225;28;20653;-59
2022/06/22 09:15:53;;;;;;;15.60;4.10;;;;;;;18.63;81.10;93633.81;5006115;28;20359;-59
2022/06/22 09:18:50;;;;;;;13.13;3.67;;;;;;;18.33;83.08;93636.53;5038418;28;20041;-59
2022/06/22 09:21:31;;;;;;;14.88;3.55;;;;;;;18.23;83.20;93637.81;5048937;28;20040;-58
2022/06/22 09:24:21;;;;;;;16.10;3.90;;;;;;;18.25;83.64;93635.34;5049032;28;20049;-59
2022/06/22 09:27:10;;;;;;;18.13;3.50;;;;;;;18.24;83.79;93633.78;5028448;28;20406;-59
2022/06/22 09:30:00;;;;;;;18.07;3.67;;;;;;;18.21;83.40;93640.31;5028448;28;21095;-58
2022/06/22 09:32:49;;;;;;;15.15;3.25;;;;;;;17.62;84.84;93637.91;5017688;28;20068;-58
2022/06/22 09:35:33;;;;;;;17.58;3.80;;;;;;;17.65;86.43;93648.09;5011840;28;20050;-59
2022/06/22 09:38:21;;;;;;;20.52;3.80;;;;;;;17.63;87.82;93649.81;5029353;28;20045;-59
2022/06/22 09:41:16;;;;;;;15.25;3.90;;;;;;;18.00;86.69;93646.91;5028263;28;20276;-58
2022/06/22 09:44:22;;;;;;;14.73;3.53;;;;;;;18.40;85.35;93648.53;5032467;28;20360;-59
2022/06/22 09:47:23;;;;;;;19.90;3.58;;;;;;;18.37;85.84;93658.56;5032158;28;20637;-58
2022/06/22 09:50:03;;;;;;;16.15;3.28;;;;;;;18.59;80.73;93649.16;5051955;28;20093;-59
2022/06/22 09:52:50;;;;;;;18.30;3.30;;;;;;;18.73;80.17;93648.44;5052493;28;20056;-59
2022/06/22 09:56:20;;;;;;;15.82;3.45;;;;;;;19.00;79.71;93663.41;5048237;28;20057;-59
2022/06/22 09:59:17;;;;;;;16.03;3.33;;;;;;;19.23;80.32;93656.97;5051914;28;20049;-59
2022/06/22 10:01:53;;;;;;;17.02;3.45;;;;;;;19.50;80.79;93655.19;5051128;28;21653;-59
2022/06/22 10:04:41;;;;;;;15.13;3.38;;;;;;;19.44;78.59;93655.09;5049849;28;20055;-59
2022/06/22 10:07:23;;;;;;;17.98;3.42;;;;;;;19.32;78.64;93659.69;5042926;28;20148;-59
2022/06/22 10:10:14;;;;;;;14.77;3.50;;;;;;;19.47;77.12;93662.47;5031624;28;20119;-59
2022/06/22 10:13:06;;;;;;;17.60;3.50;;;;;;;19.14;76.33;93660.63;5031885;28;20195;-60
2022/06/22 10:16:14;;;;;;;19.13;3.20;;;;;;;19.28;76.03;93661.13;5006219;28;20050;-59
2022/06/22 10:18:59;;;;;;;15.60;2.90;;;;;;;19.36;77.17;93653.94;5022160;28;21708;-60
2022/06/22 10:21:59;;;;;;;18.73;3.33;;;;;;;19.70;76.40;93644.13;5031989;28;20049;-59
2022/06/22 10:24:44;;;;;;;17.67;3.72;;;;;;;19.84;75.98;93662.09;5031716;28;20049;-60
2022/06/22 10:27:17;;;;;;;12.97;2.93;;;;;;;20.16;75.39;93656.75;5010014;28;20073;-59
2022/06/22 10:29:45;;;;;;;15.02;3.65;;;;;;;20.40;73.67;93664.16;5031133;28;20049;-59
2022/06/22 10:32:34;;;;;;;14.52;3.25;;;;;;;20.54;73.15;93655.78;5023484;28;20057;-59
2022/06/22 10:35:22;;;;;;;21.17;4.00;;;;;;;20.64;73.23;93659.19;5010236;28;20049;-59
2022/06/22 10:38:21;;;;;;;16.40;3.10;;;;;;;21.00;71.64;93656.34;5037109;28;20049;-59
2022/06/22 10:47:16;;;;;;;16.60;3.10;;;;;;;21.45;68.22;93643.66;5025797;28;20481;-60
2022/06/22 10:50:34;;;;;;;17.63;3.20;;;;;;;21.72;68.00;93633.97;5023361;28;20590;-60
2022/06/22 10:53:05;;;;;;;14.45;2.95;;;;;;;21.71;68.20;93632.44;4997771;28;20090;-60
2022/06/22 10:55:46;;;;;;;17.30;4.33;;;;;;;21.91;67.29;93623.22;5031290;28;20060;-60
2022/06/22 10:58:18;;;;;;;13.77;3.03;;;;;;;21.93;67.39;93625.47;5007706;28;20040;-58
2022/06/22 11:01:14;;;;;;;16.50;3.38;;;;;;;22.03;66.86;93615.66;5022418;28;20064;-59
2022/06/22 11:03:58;;;;;;;16.20;3.58;;;;;;;23.40;63.52;93612.19;5018452;28;20579;-60
2022/06/22 11:06:58;;;;;;;19.88;3.42;;;;;;;24.33;59.97;93611.94;5017263;28;20064;-60
2022/06/22 11:09:46;;;;;;;18.67;3.40;;;;;;;24.92;57.45;93606.41;5027721;28;20038;-60
2022/06/22 11:12:27;;;;;;;14.98;3.65;;;;;;;24.15;58.78;93608.91;5019719;28;20050;-59
2022/06/22 11:15:00;;;;;;;20.60;3.90;;;;;;;24.11;57.69;93603.56;5015506;28;20044;-60
2022/06/22 11:17:58;;;;;;;15.57;3.20;;;;;;;24.54;57.19;93608.09;5031381;28;20052;-61
2022/06/22 11:20:36;;;;;;;18.83;3.72;;;;;;;24.05;57.17;93605.63;5030989;28;20094;-60
2022/06/22 11:23:10;;;;;;;17.77;3.57;;;;;;;22.83;61.96;93600.06;5031291;28;20049;-60
2022/06/22 11:32:30;;;;;;;14.90;3.97;;;;;;;24.41;58.71;93602.97;5030692;28;20059;-61
2022/06/22 11:35:32;;;;;;;17.48;4.00;;;;;;;23.22;60.67;93608.63;5000886;28;20721;-60
2022/06/22 11:38:36;;;;;;;17.83;3.97;;;;;;;23.17;61.66;93612.16;5019051;28;20637;-60
2022/06/22 11:41:14;;;;;;;17.95;3.97;;;;;;;24.21;60.13;93609.69;5021555;28;20662;-60
2022/06/22 11:44:03;;;;;;;13.05;3.78;;;;;;;24.78;60.30;93613.88;5029874;28;20666;-60
2022/06/22 11:46:39;;;;;;;15.60;4.07;;;;;;;23.84;59.84;93600.25;5030468;28;20052;-60
2022/06/22 11:49:57;;;;;;;16.95;4.10;;;;;;;24.79;58.89;93592.94;5030877;28;20041;-60
2022/06/22 11:52:36;;;;;;;15.33;4.27;;;;;;;24.64;57.53;93593.25;5004524;28;21588;-60
2022/06/22 11:55:18;;;;;;;15.02;3.92;;;;;;;24.65;58.93;93591.97;5030762;28;20073;-60
2022/06/22 11:58:01;;;;;;;15.25;4.00;;;;;;;25.25;56.51;93583.03;5029635;28;20668;-60
2022/06/22 12:00:44;;;;;;;15.60;4.30;;;;;;;25.39;55.97;93581.13;5030122;28;20059;-60
2022/06/22 12:03:23;;;;;;;13.35;4.00;;;;;;;25.20;55.98;93575.38;5005287;28;20047;-58
2022/06/22 12:06:20;;;;;;;12.67;3.97;;;;;;;24.92;57.57;93581.16;5015944;28;20073;-60
2022/06/22 12:08:53;;;;;;;15.00;4.50;;;;;;;23.11;60.91;93578.53;5013206;28;20757;-60
2022/06/22 12:11:29;;;;;;;17.35;4.78;;;;;;;23.75;61.47;93578.09;5039879;28;20059;-60
2022/06/22 12:17:35;;;;;;;16.95;4.13;;;;;;;24.11;58.94;93570.69;5032630;28;21590;-60
2022/06/22 12:20:43;;;;;;;11.47;4.20;;;;;;;24.21;59.98;93573.22;5028214;28;20067;-60
2022/06/22 12:23:19;;;;;;;16.02;4.00;;;;;;;24.22;57.84;93572.69;5021544;28;20045;-60
2022/06/22 12:26:08;;;;;;;18.30;4.25;;;;;;;23.71;59.43;93571.97;5028895;28;20754;-60
2022/06/22 12:28:43;;;;;;;16.27;3.90;;;;;;;22.88;60.83;93577.72;5029866;28;20051;-60
2022/06/22 12:31:26;;;;;;;14.18;4.10;;;;;;;23.52;60.92;93585.72;5029288;28;20052;-60
2022/06/22 12:34:12;;;;;;;15.33;4.30;;;;;;;23.71;60.11;93577.59;5021913;28;21748;-60
2022/06/22 12:36:48;;;;;;;14.40;4.13;;;;;;;23.15;60.48;93575.50;5028970;28;21663;-60
2022/06/22 12:39:32;;;;;;;9.55;3.97;;;;;;;23.31;60.91;93574.00;5019198;28;20037;-59
2022/06/22 12:42:36;;;;;;;14.45;4.25;;;;;;;22.55;61.33;93569.97;5030038;28;20045;-60
2022/06/22 12:45:22;;;;;;;14.00;4.35;;;;;;;22.33;64.34;93560.22;5048644;28;20635;-60
2022/06/22 12:48:17;;;;;;;17.03;4.17;;;;;;;22.61;65.60;93556.00;5029067;28;20162;-60